Weather at Vienna International Airport

Public forecast

Using degrees Celsius for public forecast. Weather courtesy of forecast.io.

Current aviation weather report (METAR) for Vienna International Airport

2024/02/25 12:20 (retrieved 19 minutes ago)

LOWW 251220Z 15014KT 9999 FEW040 12/05 Q1007 NOSIG

Aviation forecast (TAF) for Vienna International Airport

2024/02/25 12:20 (retrieved 19 minutes ago)

TAF LOWW 251115Z 2512/2618 15012KT 9999 FEW050 TX14/2614Z TN06/2604Z TEMPO 2512/2516 17015G25KT TEMPO 2610/2617 16017G27KT